Time;durP1;ratioP1;P1;durP2;ratioP2;P2;SDS_P1;SDS_P2;PMS_P1;PMS_P2;Temp;Humidity;BMP_temperature;BMP_pressure;BME280_temperature;BME280_humidity;BME280_pressure;Samples;Min_cycle;Max_cycle;Signal;HPM_P1;HPM_P2
2021/12/11 00:01:52;;;;;;;34.83;13.13;;;;;;;1.78;100.00;94124.66;5088939;28;20059;-64
2021/12/11 00:04:31;;;;;;;10.23;4.82;;;;;;;1.64;100.00;94100.72;5087808;28;20073;-64
2021/12/11 00:07:02;;;;;;;5.40;3.28;;;;;;;1.76;100.00;94118.94;5089984;28;20039;-64
2021/12/11 00:09:37;;;;;;;6.93;2.65;;;;;;;1.81;100.00;94124.28;5092225;28;20127;-64
2021/12/11 00:12:06;;;;;;;3.55;2.25;;;;;;;1.23;100.00;94125.47;5092347;28;20436;-64
2021/12/11 00:14:37;;;;;;;4.55;2.28;;;;;;;1.10;100.00;94115.16;5070243;28;20047;-64
2021/12/11 00:17:04;;;;;;;5.63;2.53;;;;;;;1.25;100.00;94123.50;5090130;28;20054;-64
2021/12/11 00:19:34;;;;;;;3.08;1.98;;;;;;;1.37;100.00;94125.50;5092193;28;20093;-65
2021/12/11 00:22:12;;;;;;;5.45;2.35;;;;;;;1.31;100.00;94120.19;5091166;28;20089;-64
2021/12/11 00:24:40;;;;;;;6.18;2.97;;;;;;;1.51;100.00;94142.53;5089079;28;20097;-64
2021/12/11 00:27:11;;;;;;;7.53;4.00;;;;;;;1.57;100.00;94152.06;5094873;28;20040;-64
2021/12/11 00:29:38;;;;;;;16.73;7.43;;;;;;;1.57;100.00;94161.53;5072886;28;20052;-64
2021/12/11 00:32:07;;;;;;;23.67;8.13;;;;;;;1.53;100.00;94155.97;5094692;28;20040;-65
2021/12/11 00:34:37;;;;;;;18.15;8.55;;;;;;;1.40;100.00;94155.94;5085491;28;20036;-64
2021/12/11 00:37:08;;;;;;;20.02;7.97;;;;;;;1.39;100.00;94169.72;5092455;28;20071;-65
2021/12/11 00:39:50;;;;;;;9.57;4.93;;;;;;;1.36;100.00;94175.25;5093996;28;20063;-64
2021/12/11 00:42:20;;;;;;;4.25;2.60;;;;;;;1.36;100.00;94175.25;5095168;28;20075;-64
2021/12/11 00:44:51;;;;;;;4.70;2.67;;;;;;;1.30;100.00;94174.25;5087913;28;20040;-64
2021/12/11 00:47:27;;;;;;;8.05;3.33;;;;;;;1.17;100.00;94167.28;5089386;28;20467;-64
2021/12/11 00:50:10;;;;;;;5.68;3.00;;;;;;;1.27;100.00;94166.91;5093279;28;20083;-65
2021/12/11 00:52:44;;;;;;;7.30;2.95;;;;;;;1.30;100.00;94151.16;5091477;28;20059;-65
2021/12/11 00:55:32;;;;;;;63.22;23.13;;;;;;;1.29;100.00;94147.78;5091506;28;20032;-64
2021/12/11 00:58:17;;;;;;;47.95;20.17;;;;;;;1.20;100.00;94155.84;5073900;28;20125;-64
2021/12/11 01:00:50;;;;;;;24.83;9.60;;;;;;;0.88;100.00;94143.44;5088460;28;20036;-65
2021/12/11 01:03:26;;;;;;;7.82;3.85;;;;;;;0.65;100.00;94137.72;5092584;28;20114;-65
2021/12/11 01:05:55;;;;;;;3.88;2.20;;;;;;;0.60;100.00;94132.38;5094517;28;20866;-65
2021/12/11 01:08:32;;;;;;;3.80;2.58;;;;;;;0.69;100.00;94132.06;5077226;28;20086;-64
2021/12/11 01:11:11;;;;;;;15.88;6.45;;;;;;;0.81;100.00;94132.34;5088822;28;20044;-65
2021/12/11 01:13:45;;;;;;;22.65;7.82;;;;;;;0.87;100.00;94130.78;5097753;28;20040;-64
2021/12/11 01:16:14;;;;;;;16.23;8.43;;;;;;;0.97;100.00;94120.19;5098885;28;20420;-65
2021/12/11 01:18:46;;;;;;;9.02;4.97;;;;;;;0.94;100.00;94122.16;5101232;28;20114;-64
2021/12/11 01:21:42;;;;;;;4.30;2.55;;;;;;;0.86;100.00;94104.34;5096511;28;20039;-65
2021/12/11 01:24:28;;;;;;;4.13;2.50;;;;;;;0.93;100.00;94125.69;5099084;28;20055;-64
2021/12/11 01:26:59;;;;;;;5.18;1.83;;;;;;;0.83;100.00;94122.69;5095419;28;20043;-65
2021/12/11 01:29:29;;;;;;;2.97;1.98;;;;;;;0.83;100.00;94112.44;5093628;28;20070;-65
2021/12/11 01:31:57;;;;;;;4.28;1.50;;;;;;;0.81;100.00;94105.88;5093389;28;20044;-65
2021/12/11 01:34:25;;;;;;;2.38;1.35;;;;;;;0.83;100.00;94109.88;5093193;28;20068;-65
2021/12/11 01:36:52;;;;;;;4.15;1.90;;;;;;;0.72;100.00;94108.63;5098639;28;20507;-65
2021/12/11 01:39:23;;;;;;;9.35;2.47;;;;;;;0.81;100.00;94106.69;5097316;28;20071;-64
2021/12/11 01:41:51;;;;;;;3.92;2.72;;;;;;;0.71;100.00;94106.22;5087804;28;20047;-65
2021/12/11 01:44:26;;;;;;;2.90;1.60;;;;;;;0.55;100.00;94100.41;5099297;28;20075;-65
2021/12/11 01:47:09;;;;;;;2.80;1.77;;;;;;;0.44;100.00;94103.47;5095499;28;20055;-64
2021/12/11 01:49:39;;;;;;;3.78;1.33;;;;;;;0.43;100.00;94104.44;5080082;28;20584;-64
2021/12/11 01:52:14;;;;;;;3.42;1.55;;;;;;;0.47;100.00;94104.88;5097400;28;20065;-64
2021/12/11 01:54:44;;;;;;;2.85;1.30;;;;;;;0.47;100.00;94095.44;5091701;28;20048;-64
2021/12/11 01:57:17;;;;;;;2.10;1.15;;;;;;;0.47;100.00;94090.31;5095691;28;20059;-64
2021/12/11 01:59:47;;;;;;;3.80;1.50;;;;;;;0.57;100.00;94090.75;5090939;28;20125;-65
2021/12/11 02:02:19;;;;;;;3.42;1.55;;;;;;;0.62;100.00;94092.00;5090001;28;20460;-65
2021/12/11 02:04:49;;;;;;;5.25;1.92;;;;;;;0.75;100.00;94097.19;5089618;28;20031;-65
2021/12/11 02:07:39;;;;;;;2.33;1.38;;;;;;;0.78;100.00;94101.94;5090109;28;20040;-64
2021/12/11 02:10:15;;;;;;;2.80;1.10;;;;;;;0.82;100.00;94103.16;5093314;28;20048;-65
2021/12/11 02:12:44;;;;;;;2.58;0.93;;;;;;;0.73;100.00;94088.91;5092196;28;20066;-64
2021/12/11 02:15:15;;;;;;;2.58;1.58;;;;;;;0.75;100.00;94099.75;5098182;28;20071;-64
2021/12/11 02:17:57;;;;;;;3.38;1.80;;;;;;;0.63;100.00;94094.38;5091129;28;20048;-64
2021/12/11 02:20:38;;;;;;;3.22;1.95;;;;;;;0.68;100.00;94111.72;5094913;28;20059;-65
2021/12/11 02:23:06;;;;;;;2.60;1.25;;;;;;;0.73;100.00;94101.72;5091570;28;20044;-64
2021/12/11 02:25:43;;;;;;;2.72;1.42;;;;;;;0.88;100.00;94104.97;5093949;28;20047;-64
2021/12/11 02:28:25;;;;;;;2.33;1.80;;;;;;;0.91;100.00;94102.00;5094227;28;20044;-64
2021/12/11 02:31:00;;;;;;;5.97;2.53;;;;;;;0.79;100.00;94106.06;5096061;28;20804;-65
2021/12/11 02:33:39;;;;;;;2.20;1.40;;;;;;;0.68;100.00;94101.47;5092248;28;20058;-64
2021/12/11 02:36:26;;;;;;;2.67;1.02;;;;;;;0.63;100.00;94108.94;5096074;28;20032;-64
2021/12/11 02:38:55;;;;;;;2.40;1.45;;;;;;;0.56;100.00;94109.69;5097139;28;20505;-65
2021/12/11 02:41:41;;;;;;;9.10;1.73;;;;;;;0.54;100.00;94111.66;5094131;28;20044;-65
2021/12/11 02:44:25;;;;;;;2.60;1.02;;;;;;;0.41;100.00;94095.38;5093644;28;20113;-64
2021/12/11 02:46:58;;;;;;;3.30;1.85;;;;;;;0.66;100.00;94108.56;5099166;28;20040;-66
2021/12/11 02:49:40;;;;;;;2.75;1.75;;;;;;;0.61;100.00;94100.63;5072849;28;20467;-64
2021/12/11 02:52:13;;;;;;;2.40;1.45;;;;;;;0.67;100.00;94099.91;5075639;28;20044;-64
2021/12/11 02:54:48;;;;;;;4.25;1.92;;;;;;;0.64;100.00;94082.34;5092417;28;20053;-65
2021/12/11 02:57:31;;;;;;;4.15;2.08;;;;;;;0.56;100.00;94083.28;5095441;28;20495;-64
2021/12/11 03:00:14;;;;;;;5.20;1.70;;;;;;;0.59;100.00;94064.94;5089716;28;20456;-64
2021/12/11 03:02:46;;;;;;;3.53;1.90;;;;;;;0.76;100.00;94058.56;5091052;28;20044;-64
2021/12/11 03:05:17;;;;;;;4.68;1.85;;;;;;;0.99;100.00;94061.81;5087960;28;20108;-65
2021/12/11 03:07:50;;;;;;;2.58;1.73;;;;;;;1.07;100.00;94053.97;5088423;28;20048;-65
2021/12/11 03:10:24;;;;;;;4.82;2.05;;;;;;;1.26;100.00;94073.78;5094263;28;20043;-64
2021/12/11 03:12:53;;;;;;;3.72;1.77;;;;;;;1.36;100.00;94072.63;5094751;28;20063;-64
2021/12/11 03:15:20;;;;;;;4.45;1.80;;;;;;;1.42;100.00;94082.09;5096267;28;20046;-64
2021/12/11 03:17:46;;;;;;;3.10;1.77;;;;;;;1.50;100.00;94081.94;5090866;28;20412;-64
2021/12/11 03:20:19;;;;;;;3.28;1.92;;;;;;;1.57;100.00;94085.34;5086018;28;20043;-64
2021/12/11 03:22:46;;;;;;;4.40;2.20;;;;;;;1.60;100.00;94082.34;5091945;28;20040;-64
2021/12/11 03:25:17;;;;;;;4.70;2.10;;;;;;;1.72;100.00;94083.38;5091240;28;20040;-64
2021/12/11 03:27:47;;;;;;;1.73;1.10;;;;;;;1.85;100.00;94069.00;5095909;28;20104;-63
2021/12/11 03:30:21;;;;;;;3.30;1.23;;;;;;;1.88;100.00;94071.97;5092275;28;20054;-63
2021/12/11 03:32:53;;;;;;;4.57;1.83;;;;;;;1.77;100.00;94059.69;5089968;28;20035;-64
2021/12/11 03:35:21;;;;;;;3.88;2.03;;;;;;;1.77;100.00;94057.13;5090713;28;20042;-63
2021/12/11 03:37:49;;;;;;;3.78;2.03;;;;;;;1.77;100.00;94053.78;5096301;28;20039;-64
2021/12/11 03:40:17;;;;;;;2.78;1.88;;;;;;;1.81;100.00;94039.56;5098148;28;20402;-64
2021/12/11 03:42:48;;;;;;;3.72;2.33;;;;;;;1.86;100.00;94034.63;5091633;28;20043;-64
2021/12/11 03:45:23;;;;;;;7.97;2.25;;;;;;;1.92;100.00;94015.84;5092416;28;20040;-64
2021/12/11 03:47:54;;;;;;;2.92;1.92;;;;;;;1.94;100.00;94011.31;5094077;28;20509;-64
2021/12/11 03:50:22;;;;;;;2.47;1.40;;;;;;;1.92;100.00;94005.59;5086865;28;20455;-64
2021/12/11 03:52:51;;;;;;;2.58;1.50;;;;;;;1.97;100.00;94010.94;5095353;28;20505;-64
2021/12/11 03:55:25;;;;;;;3.58;1.95;;;;;;;2.01;100.00;94019.03;5090369;28;20532;-65
2021/12/11 03:57:59;;;;;;;2.08;1.73;;;;;;;2.06;100.00;94014.09;5090393;28;20040;-64
2021/12/11 04:00:32;;;;;;;2.63;1.88;;;;;;;2.13;100.00;94029.50;5093743;28;20398;-64
2021/12/11 04:03:04;;;;;;;3.85;2.03;;;;;;;2.24;100.00;94024.56;5092380;28;20449;-64
2021/12/11 04:05:35;;;;;;;3.97;1.83;;;;;;;2.52;100.00;94040.72;5088499;28;20036;-65
2021/12/11 04:08:03;;;;;;;3.88;1.92;;;;;;;2.59;100.00;94026.09;5091322;28;20110;-64
2021/12/11 04:10:30;;;;;;;1.27;1.08;;;;;;;2.66;100.00;94042.28;5090621;28;20047;-64
2021/12/11 04:13:00;;;;;;;4.75;1.50;;;;;;;2.72;100.00;94051.78;5092079;28;20086;-64
2021/12/11 04:15:28;;;;;;;2.72;1.55;;;;;;;2.70;100.00;94064.03;5095509;28;20463;-64
2021/12/11 04:17:55;;;;;;;4.05;1.00;;;;;;;2.72;100.00;94063.84;5091603;28;20048;-64
2021/12/11 04:20:30;;;;;;;3.00;1.65;;;;;;;2.59;100.00;94083.47;5093337;28;20089;-64
2021/12/11 04:22:57;;;;;;;2.25;1.48;;;;;;;2.61;100.00;94075.53;5091128;28;20100;-64
2021/12/11 04:25:26;;;;;;;2.60;1.55;;;;;;;2.56;100.00;94075.34;5091828;28;20070;-64
2021/12/11 04:27:54;;;;;;;2.03;1.58;;;;;;;2.52;100.00;94072.41;5095529;28;20044;-64
2021/12/11 04:30:23;;;;;;;4.45;1.67;;;;;;;2.56;100.00;94062.50;5089471;28;20125;-65
2021/12/11 04:32:52;;;;;;;4.05;1.60;;;;;;;2.45;100.00;94051.81;5090896;28;20473;-64
2021/12/11 04:35:20;;;;;;;4.00;1.20;;;;;;;2.38;100.00;94055.41;5091066;28;20043;-64
2021/12/11 04:37:48;;;;;;;2.05;1.17;;;;;;;2.41;100.00;94045.50;5095420;28;20048;-64
2021/12/11 04:40:25;;;;;;;1.95;1.27;;;;;;;2.35;100.00;94025.72;5099301;28;20054;-64
2021/12/11 04:43:04;;;;;;;2.25;1.15;;;;;;;2.42;100.00;94036.78;5095784;28;20036;-64
2021/12/11 04:45:46;;;;;;;4.03;1.60;;;;;;;2.42;100.00;94023.16;5099282;28;20532;-64
2021/12/11 04:48:49;;;;;;;2.10;1.25;;;;;;;2.41;100.00;94024.94;5093160;28;20061;-65
2021/12/11 04:51:24;;;;;;;2.75;1.42;;;;;;;2.45;100.00;94025.34;5092080;28;20039;-64
2021/12/11 04:54:22;;;;;;;2.05;1.35;;;;;;;2.45;100.00;94020.97;5095834;28;20497;-64
2021/12/11 05:07:28;;;;;;;1.67;1.08;;;;;;;2.36;100.00;93986.22;5092913;28;20039;-64
2021/12/11 05:10:14;;;;;;;5.17;1.50;;;;;;;2.45;100.00;94005.56;5095045;28;20441;-64
2021/12/11 05:12:44;;;;;;;3.70;1.77;;;;;;;2.46;100.00;93994.28;5093859;28;20040;-64
2021/12/11 05:15:19;;;;;;;2.55;1.85;;;;;;;2.38;100.00;93973.94;5090174;28;20477;-64
2021/12/11 05:17:47;;;;;;;2.22;1.25;;;;;;;2.37;100.00;93962.06;5092207;28;20040;-64
2021/12/11 05:20:18;;;;;;;3.40;1.60;;;;;;;2.57;100.00;93976.66;5096215;28;20801;-64
2021/12/11 05:22:46;;;;;;;1.65;1.20;;;;;;;2.59;100.00;93984.97;5095141;28;20079;-63
2021/12/11 05:25:14;;;;;;;2.53;1.27;;;;;;;2.63;100.00;93981.00;5096991;28;20040;-64
2021/12/11 05:27:42;;;;;;;1.90;1.10;;;;;;;2.60;100.00;93976.25;5093833;28;20044;-63
2021/12/11 05:30:17;;;;;;;1.27;1.17;;;;;;;2.73;100.00;93981.34;5098793;28;20494;-64
2021/12/11 05:32:47;;;;;;;1.92;1.35;;;;;;;2.71;100.00;93970.50;5095842;28;20043;-64
2021/12/11 05:35:16;;;;;;;1.83;1.08;;;;;;;2.80;100.00;93987.25;5073754;28;20491;-64
2021/12/11 05:37:43;;;;;;;2.50;1.52;;;;;;;2.86;100.00;93991.63;5095416;28;20540;-64
2021/12/11 05:40:16;;;;;;;1.45;1.27;;;;;;;2.86;100.00;93991.63;5094585;28;20058;-64
2021/12/11 05:42:43;;;;;;;2.15;1.42;;;;;;;2.80;100.00;93971.84;5093416;28;20771;-64
2021/12/11 05:45:10;;;;;;;2.00;1.17;;;;;;;2.85;100.00;93974.59;5094383;28;20505;-64
2021/12/11 05:47:36;;;;;;;5.05;2.33;;;;;;;2.79;100.00;93962.56;5099501;28;20428;-63
2021/12/11 05:50:07;;;;;;;2.63;1.02;;;;;;;2.82;100.00;93974.22;5094160;28;20081;-64
2021/12/11 05:52:35;;;;;;;2.97;1.30;;;;;;;2.83;100.00;93981.72;5088792;28;20078;-64
2021/12/11 05:55:05;;;;;;;1.17;0.70;;;;;;;2.89;100.00;93989.63;5093455;28;20429;-63
2021/12/11 05:57:34;;;;;;;2.22;0.60;;;;;;;2.98;100.00;94002.03;5079840;28;20036;-64
2021/12/11 06:00:05;;;;;;;1.88;0.88;;;;;;;3.16;100.00;93990.31;5095942;28;20382;-63
2021/12/11 06:02:53;;;;;;;2.00;1.02;;;;;;;3.24;100.00;93993.44;5097977;28;20043;-63
2021/12/11 06:05:21;;;;;;;1.52;1.05;;;;;;;3.24;100.00;93998.59;5093183;28;20587;-63
2021/12/11 06:07:48;;;;;;;1.60;1.15;;;;;;;3.24;100.00;94003.72;5096663;28;20044;-64
2021/12/11 06:10:17;;;;;;;1.27;0.77;;;;;;;3.25;100.00;94019.94;5094254;28;20400;-64
2021/12/11 06:12:46;;;;;;;1.58;0.85;;;;;;;3.32;100.00;94025.06;5097666;28;20039;-64
2021/12/11 06:15:14;;;;;;;0.95;0.65;;;;;;;3.22;100.00;94021.16;5090579;28;20513;-64
2021/12/11 06:17:43;;;;;;;2.58;1.42;;;;;;;3.21;100.00;94014.44;5096150;28;20481;-63
2021/12/11 06:20:12;;;;;;;2.25;0.88;;;;;;;3.20;100.00;94012.84;5095831;28;20040;-64
2021/12/11 06:22:39;;;;;;;0.90;0.70;;;;;;;3.18;100.00;94009.69;5078992;28;20181;-63
2021/12/11 06:25:13;;;;;;;1.23;0.60;;;;;;;3.19;100.00;94010.50;5092127;28;20574;-63
2021/12/11 06:27:41;;;;;;;1.35;0.65;;;;;;;3.22;100.00;94010.06;5094354;28;20036;-64
2021/12/11 06:30:09;;;;;;;2.03;0.90;;;;;;;3.27;100.00;94012.03;5092969;28;20044;-64
2021/12/11 06:32:37;;;;;;;5.65;0.88;;;;;;;3.28;100.00;94003.28;5091720;28;20501;-63
2021/12/11 06:35:10;;;;;;;1.38;0.98;;;;;;;3.34;100.00;94012.78;5097212;28;20043;-64
2021/12/11 06:37:37;;;;;;;1.30;1.00;;;;;;;3.38;100.00;94016.53;5091231;28;20036;-64
2021/12/11 06:40:05;;;;;;;1.67;0.95;;;;;;;3.46;100.00;94013.72;5093210;28;20465;-64
2021/12/11 06:42:32;;;;;;;1.33;1.00;;;;;;;3.46;100.00;94011.16;5095764;28;20043;-64
2021/12/11 06:44:59;;;;;;;3.50;1.30;;;;;;;3.42;100.00;94003.03;5093436;28;20063;-64
2021/12/11 06:47:25;;;;;;;1.50;1.20;;;;;;;3.66;100.00;94016.19;5089369;28;20515;-63
2021/12/11 06:49:52;;;;;;;13.18;5.35;;;;;;;3.70;100.00;94011.41;5093837;28;20109;-64
2021/12/11 06:52:22;;;;;;;1.73;0.95;;;;;;;3.73;100.00;94013.56;5095389;28;20032;-64
2021/12/11 06:54:50;;;;;;;2.05;1.33;;;;;;;3.69;100.00;94014.97;5094724;28;20540;-65
2021/12/11 06:57:18;;;;;;;2.45;1.05;;;;;;;3.72;100.00;94020.47;5091148;28;20508;-65
2021/12/11 06:59:47;;;;;;;5.57;3.55;;;;;;;3.70;100.00;94011.41;5098353;28;20478;-65
2021/12/11 07:02:19;;;;;;;3.63;2.42;;;;;;;3.71;100.00;94012.97;5094608;28;20425;-64
2021/12/11 07:04:48;;;;;;;11.93;5.50;;;;;;;3.90;100.00;94017.19;5092456;28;20052;-64
2021/12/11 07:07:21;;;;;;;4.45;2.17;;;;;;;3.88;100.00;94015.84;5087738;28;20044;-65
2021/12/11 07:09:49;;;;;;;11.07;5.85;;;;;;;3.84;100.00;94012.88;5089982;28;20047;-64
2021/12/11 07:12:16;;;;;;;3.80;1.83;;;;;;;3.86;100.00;94003.16;5092623;28;20523;-64
2021/12/11 07:14:43;;;;;;;1.83;1.10;;;;;;;3.96;100.00;94006.06;5091651;28;20084;-64
2021/12/11 07:17:09;;;;;;;5.13;2.70;;;;;;;3.90;100.00;93986.28;5092528;28;20051;-66
2021/12/11 07:19:36;;;;;;;2.35;0.90;;;;;;;3.89;100.00;93983.91;5092888;28;20093;-64
2021/12/11 07:22:08;;;;;;;2.47;1.15;;;;;;;3.98;100.00;94004.06;5096806;28;20792;-65
2021/12/11 07:25:13;;;;;;;3.28;2.20;;;;;;;3.96;100.00;93982.88;5094264;28;20163;-65
2021/12/11 07:27:39;;;;;;;2.60;1.42;;;;;;;3.95;100.00;93983.88;5080020;28;20410;-64
2021/12/11 07:30:07;;;;;;;1.00;0.90;;;;;;;3.98;100.00;93983.47;5086097;28;20046;-65
2021/12/11 07:32:34;;;;;;;4.72;2.28;;;;;;;4.05;100.00;93987.75;5097380;28;20040;-66
2021/12/11 07:35:01;;;;;;;2.03;1.23;;;;;;;4.12;100.00;93983.34;5089772;28;20441;-65
2021/12/11 07:37:28;;;;;;;2.42;1.30;;;;;;;4.14;100.00;93981.34;5094215;28;20040;-65
2021/12/11 07:39:55;;;;;;;3.17;1.77;;;;;;;4.16;100.00;93990.44;5077681;28;20047;-66
2021/12/11 07:42:22;;;;;;;11.65;6.97;;;;;;;4.29;100.00;93979.22;5094718;28;20039;-65
2021/12/11 07:44:49;;;;;;;3.13;1.77;;;;;;;4.45;100.00;93987.41;5087202;28;20043;-65
2021/12/11 07:47:16;;;;;;;3.97;1.63;;;;;;;4.50;100.00;93987.56;5091359;28;20044;-65
2021/12/11 07:49:44;;;;;;;4.90;2.53;;;;;;;4.53;100.00;93994.88;5087458;28;20040;-64
2021/12/11 07:52:11;;;;;;;1.35;1.00;;;;;;;4.51;99.54;93996.88;5094518;28;20046;-65
2021/12/11 07:54:38;;;;;;;1.75;0.73;;;;;;;4.49;100.00;93988.56;5089131;28;20039;-65
2021/12/11 07:57:05;;;;;;;1.02;0.73;;;;;;;4.56;100.00;93994.47;5091186;28;20038;-65
2021/12/11 07:59:32;;;;;;;2.47;1.33;;;;;;;4.62;100.00;93983.28;5086999;28;20044;-65
2021/12/11 08:01:59;;;;;;;2.22;1.23;;;;;;;4.62;100.00;93978.13;5080926;28;20047;-65
2021/12/11 08:04:26;;;;;;;4.40;2.65;;;;;;;4.68;100.00;93981.63;5083839;28;20043;-66
2021/12/11 08:06:53;;;;;;;4.10;2.65;;;;;;;4.75;100.00;93988.31;5079621;28;20417;-66
2021/12/11 08:09:22;;;;;;;4.88;3.38;;;;;;;4.87;100.00;93990.16;5081989;28;20053;-66
2021/12/11 08:11:49;;;;;;;3.35;1.77;;;;;;;4.95;98.64;93987.28;5082163;28;20059;-65
2021/12/11 08:14:18;;;;;;;2.10;1.08;;;;;;;5.01;98.27;93986.44;5086316;28;20058;-65
2021/12/11 08:16:48;;;;;;;3.42;1.30;;;;;;;5.00;99.05;93976.31;5092427;28;20044;-65
2021/12/11 08:19:21;;;;;;;1.08;0.75;;;;;;;5.02;99.10;93982.81;5087558;28;20131;-65
2021/12/11 08:21:50;;;;;;;3.55;1.27;;;;;;;4.89;99.38;93972.66;5072005;28;20054;-65
2021/12/11 08:24:18;;;;;;;2.83;1.48;;;;;;;5.03;99.83;93983.63;5091387;28;20044;-65
2021/12/11 08:26:46;;;;;;;3.33;0.60;;;;;;;5.08;99.43;93981.19;5088853;28;20055;-65
2021/12/11 08:29:14;;;;;;;2.58;1.33;;;;;;;5.27;98.65;93984.53;5078745;28;20043;-65
2021/12/11 08:31:45;;;;;;;2.70;1.70;;;;;;;5.37;98.27;93974.47;5086782;28;20140;-65
2021/12/11 08:34:12;;;;;;;4.88;2.13;;;;;;;5.51;97.55;93967.31;5069683;28;20778;-65
2021/12/11 08:36:40;;;;;;;2.08;0.98;;;;;;;5.66;96.83;93972.09;5089407;28;20032;-65
2021/12/11 08:39:10;;;;;;;5.05;2.58;;;;;;;5.68;96.60;93970.06;5086602;28;20062;-65
2021/12/11 08:41:38;;;;;;;13.65;5.57;;;;;;;5.71;97.25;93979.97;5086499;28;20048;-65
2021/12/11 08:44:11;;;;;;;7.85;4.35;;;;;;;5.63;98.78;93977.69;5089028;28;20416;-65
2021/12/11 08:46:42;;;;;;;13.93;5.32;;;;;;;5.69;97.72;93981.97;5066410;28;20052;-65
2021/12/11 08:49:19;;;;;;;20.35;8.35;;;;;;;5.81;98.10;93980.19;5067620;28;20096;-66
2021/12/11 08:51:51;;;;;;;3.47;2.10;;;;;;;5.88;99.26;93970.53;5085380;28;20044;-65
2021/12/11 08:54:21;;;;;;;9.88;3.80;;;;;;;5.93;98.85;93962.91;5084128;28;20043;-66
2021/12/11 08:56:49;;;;;;;6.88;2.72;;;;;;;6.10;97.13;93964.88;5089382;28;20697;-67
2021/12/11 08:59:19;;;;;;;5.43;3.13;;;;;;;6.17;96.31;93947.44;5093072;28;20082;-67
2021/12/11 09:02:09;;;;;;;2.25;1.52;;;;;;;6.36;96.64;93944.78;5092207;28;20042;-66
2021/12/11 09:05:08;;;;;;;2.75;1.70;;;;;;;6.43;96.77;93941.03;5077706;28;20056;-67
2021/12/11 09:07:40;;;;;;;11.15;4.13;;;;;;;6.54;95.72;93936.09;5077604;28;20531;-67
2021/12/11 09:10:14;;;;;;;8.00;4.75;;;;;;;6.70;94.96;93936.16;5084688;28;20527;-66
2021/12/11 09:13:12;;;;;;;9.10;4.30;;;;;;;6.83;93.50;93934.34;5090353;28;20040;-65
2021/12/11 09:15:44;;;;;;;8.50;4.95;;;;;;;7.02;93.75;93922.81;5074134;28;20056;-66
2021/12/11 09:18:19;;;;;;;5.13;3.10;;;;;;;7.23;93.52;93925.75;5084072;28;20047;-66
2021/12/11 09:21:19;;;;;;;4.82;3.30;;;;;;;7.25;95.49;93913.38;5082344;28;20084;-66
2021/12/11 09:24:03;;;;;;;3.97;2.28;;;;;;;7.06;94.45;93918.75;5085393;28;20046;-65
2021/12/11 09:26:39;;;;;;;2.72;1.73;;;;;;;6.96;93.90;93913.34;5089565;28;20511;-66
2021/12/11 09:29:23;;;;;;;5.60;3.65;;;;;;;6.87;96.26;93909.56;5083480;28;20389;-65
2021/12/11 09:32:01;;;;;;;6.10;3.53;;;;;;;6.87;98.19;93900.00;5086938;28;20150;-65
2021/12/11 09:34:41;;;;;;;5.68;2.95;;;;;;;7.05;98.00;93901.63;5071165;28;20737;-65
2021/12/11 09:37:10;;;;;;;4.93;2.97;;;;;;;7.02;95.98;93902.09;5088617;28;20046;-64
2021/12/11 09:39:47;;;;;;;3.53;2.20;;;;;;;7.07;95.47;93909.94;5092219;28;20800;-64
2021/12/11 09:42:14;;;;;;;2.97;1.98;;;;;;;7.17;94.82;93901.59;5099559;28;20424;-65
2021/12/11 09:44:47;;;;;;;3.80;2.17;;;;;;;7.18;96.19;93899.78;5089077;28;20055;-65
2021/12/11 09:47:29;;;;;;;6.10;1.77;;;;;;;7.22;96.73;93900.88;5091648;28;20039;-66
2021/12/11 09:50:05;;;;;;;5.07;3.28;;;;;;;7.21;95.78;93873.41;5081682;28;20139;-68
2021/12/11 09:52:32;;;;;;;4.68;1.80;;;;;;;7.18;96.55;93886.81;5093263;28;20036;-67
2021/12/11 09:55:15;;;;;;;26.08;9.85;;;;;;;7.27;97.03;93882.84;5087899;28;20032;-65
2021/12/11 09:57:46;;;;;;;25.85;9.60;;;;;;;7.33;96.89;93881.91;5082396;28;20055;-67
2021/12/11 10:00:22;;;;;;;14.48;6.07;;;;;;;7.42;96.85;93880.50;5085727;28;20052;-66
2021/12/11 10:02:49;;;;;;;9.98;3.15;;;;;;;7.47;95.57;93878.00;5092451;28;20402;-67
2021/12/11 10:05:33;;;;;;;9.73;3.88;;;;;;;7.40;94.28;93861.84;5092051;28;20040;-66
2021/12/11 10:08:35;;;;;;;13.18;4.50;;;;;;;7.53;94.43;93871.09;5085024;28;20044;-66
2021/12/11 10:11:21;;;;;;;6.00;2.92;;;;;;;7.50;95.87;93865.59;5091964;28;20126;-66
2021/12/11 10:14:11;;;;;;;19.40;6.82;;;;;;;7.55;95.67;93857.91;5092749;28;20047;-66
2021/12/11 10:16:43;;;;;;;15.20;6.50;;;;;;;7.52;96.80;93848.00;5092727;28;20040;-65
2021/12/11 10:19:15;;;;;;;14.80;5.07;;;;;;;7.60;95.12;93850.22;5093779;28;20039;-66
2021/12/11 10:21:49;;;;;;;5.60;2.83;;;;;;;7.65;95.95;93842.50;5093908;28;20051;-67
2021/12/11 10:24:21;;;;;;;12.70;4.68;;;;;;;7.66;96.73;93849.28;5095802;28;20050;-66
2021/12/11 10:26:50;;;;;;;10.18;3.03;;;;;;;7.73;97.15;93854.31;5091663;28;20109;-66
2021/12/11 10:29:22;;;;;;;7.60;3.40;;;;;;;7.83;96.91;93857.03;5089706;28;20141;-66
2021/12/11 10:31:56;;;;;;;4.82;2.28;;;;;;;7.82;97.49;93866.63;5095470;28;20047;-67
2021/12/11 10:34:26;;;;;;;8.20;3.45;;;;;;;7.77;98.52;93850.22;5090707;28;20051;-66
2021/12/11 10:37:04;;;;;;;8.75;2.75;;;;;;;7.74;98.16;93856.66;5093109;28;20596;-66
2021/12/11 10:39:32;;;;;;;2.42;1.80;;;;;;;7.69;97.46;93854.00;5071855;28;20040;-66
2021/12/11 10:41:59;;;;;;;3.30;2.30;;;;;;;7.58;97.40;93841.88;5088809;28;20062;-65
2021/12/11 10:44:38;;;;;;;3.00;1.58;;;;;;;7.55;98.44;93842.38;5090794;28;20742;-66
2021/12/11 10:47:11;;;;;;;9.52;2.85;;;;;;;7.57;99.39;93840.31;5081300;28;20031;-65
2021/12/11 10:49:41;;;;;;;4.93;2.85;;;;;;;7.60;99.43;93845.03;5079283;28;20036;-66
2021/12/11 10:52:24;;;;;;;2.15;1.50;;;;;;;7.59;100.00;93833.09;5062943;28;20043;-65
2021/12/11 10:54:54;;;;;;;6.13;2.50;;;;;;;7.59;100.00;93827.91;5078733;28;21547;-66
2021/12/11 10:57:23;;;;;;;6.75;3.55;;;;;;;7.66;100.00;93823.34;5081143;28;20041;-66
2021/12/11 10:59:55;;;;;;;5.20;3.08;;;;;;;7.68;100.00;93820.53;5087299;28;20048;-67
2021/12/11 11:02:33;;;;;;;6.70;2.63;;;;;;;7.73;100.00;93818.00;5079352;28;20062;-65
2021/12/11 11:05:08;;;;;;;6.10;2.70;;;;;;;7.72;100.00;93822.38;5087021;28;20477;-65
2021/12/11 11:07:36;;;;;;;5.40;2.15;;;;;;;7.76;100.00;93823.50;5085764;28;20032;-66
2021/12/11 11:10:10;;;;;;;2.72;0.80;;;;;;;7.77;100.00;93817.28;5064120;28;20044;-66
2021/12/11 11:12:37;;;;;;;1.90;1.17;;;;;;;7.65;100.00;93817.41;5092956;28;20044;-67
2021/12/11 11:15:04;;;;;;;4.63;1.55;;;;;;;7.74;100.00;93822.16;5081175;28;20402;-66
2021/12/11 11:17:33;;;;;;;2.15;1.35;;;;;;;7.69;100.00;93812.53;5076870;28;20185;-66
2021/12/11 11:20:09;;;;;;;3.60;2.47;;;;;;;7.69;100.00;93822.88;5086373;28;20036;-66
2021/12/11 11:22:40;;;;;;;2.42;1.83;;;;;;;7.66;100.00;93803.41;5088734;28;20504;-66
2021/12/11 11:25:13;;;;;;;3.17;2.78;;;;;;;7.68;100.00;93805.75;5088041;28;20036;-67
2021/12/11 11:27:44;;;;;;;7.40;2.22;;;;;;;7.56;100.00;93807.66;5088310;28;20524;-67
2021/12/11 11:30:16;;;;;;;5.57;3.20;;;;;;;7.55;100.00;93800.91;5092022;28;20504;-66
2021/12/11 11:32:43;;;;;;;3.20;1.77;;;;;;;7.54;100.00;93791.56;5088665;28;20042;-66
2021/12/11 11:35:14;;;;;;;8.00;3.80;;;;;;;7.58;100.00;93795.22;5089124;28;20044;-68
2021/12/11 11:37:50;;;;;;;7.95;3.70;;;;;;;7.59;100.00;93771.69;5092475;28;20064;-67
2021/12/11 11:40:25;;;;;;;5.63;2.28;;;;;;;7.63;100.00;93772.78;5073924;28;20040;-68
2021/12/11 11:42:53;;;;;;;3.35;1.77;;;;;;;7.70;100.00;93777.78;5089358;28;20413;-68
2021/12/11 11:45:20;;;;;;;3.17;1.80;;;;;;;7.77;100.00;93773.22;5085429;28;20678;-68
2021/12/11 11:47:47;;;;;;;5.25;2.17;;;;;;;7.82;100.00;93770.69;5094187;28;20516;-69
2021/12/11 11:50:20;;;;;;;5.88;3.08;;;;;;;7.84;100.00;93760.88;5094652;28;20039;-69
2021/12/11 11:52:47;;;;;;;7.38;2.33;;;;;;;7.88;100.00;93750.03;5085792;28;20440;-70
2021/12/11 11:55:19;;;;;;;1.92;1.33;;;;;;;7.89;100.00;93749.03;5091510;28;20043;-69
2021/12/11 11:57:48;;;;;;;5.28;2.35;;;;;;;7.91;100.00;93752.16;5085760;28;20032;-70
2021/12/11 12:00:41;;;;;;;7.28;2.88;;;;;;;7.95;100.00;93753.22;5092571;28;20060;-70
2021/12/11 12:03:11;;;;;;;3.17;2.17;;;;;;;7.99;100.00;93749.13;5085084;28;20429;-71
2021/12/11 12:05:39;;;;;;;4.38;2.50;;;;;;;7.99;100.00;93754.31;5096121;28;20044;-69
2021/12/11 12:08:09;;;;;;;5.57;2.97;;;;;;;8.04;100.00;93754.38;5087644;28;20039;-69
2021/12/11 12:10:38;;;;;;;3.75;2.00;;;;;;;7.94;100.00;93742.09;5087551;28;20441;-69